createdAt,value
2023-04-15T00:01:01.499Z,102.53
2023-04-15T00:02:09.660Z,102.53
2023-04-15T00:03:17.850Z,103.27
2023-04-15T00:04:26.058Z,102.53
2023-04-15T00:05:35.225Z,100.09
2023-04-15T00:06:44.403Z,102.53
2023-04-15T00:07:53.569Z,101.8
2023-04-15T00:09:02.736Z,102.53
2023-04-15T00:10:11.918Z,105.22
2023-04-15T00:11:21.148Z,104
2023-04-15T00:12:30.259Z,105.22
2023-04-15T00:13:39.430Z,104
2023-04-15T00:14:48.591Z,103.75
2023-04-15T00:15:57.777Z,103.27
2023-04-15T00:17:06.957Z,104.49
2023-04-15T00:18:16.192Z,104.49
2023-04-15T00:19:24.307Z,103.02
2023-04-15T00:20:33.475Z,102.78
2023-04-15T00:21:42.661Z,103.27
2023-04-15T00:22:51.853Z,104.24
2023-04-15T00:25:10.174Z,102.29
2023-04-15T00:26:19.340Z,102.53
2023-04-15T00:27:28.513Z,101.07
2023-04-15T00:28:36.705Z,103.51
2023-04-15T00:29:44.942Z,102.53
2023-04-15T00:30:54.072Z,101.07
2023-04-15T00:32:03.248Z,101.8
2023-04-15T00:33:12.427Z,100.83
2023-04-15T00:34:21.605Z,100.58
2023-04-15T00:35:30.775Z,101.8
2023-04-15T00:36:40.005Z,102.53
2023-04-15T00:37:49.181Z,103.75
2023-04-15T00:38:58.287Z,104
2023-04-15T00:40:07.452Z,103.27
2023-04-15T00:41:16.637Z,104.73
2023-04-15T00:42:25.851Z,104.73
2023-04-15T00:43:35.014Z,103.02
2023-04-15T00:44:43.183Z,104.73
2023-04-15T00:45:52.344Z,104.24
2023-04-15T00:47:01.504Z,104
2023-04-15T00:48:10.687Z,101.07
2023-04-15T00:49:19.861Z,102.05
2023-04-15T00:50:29.025Z,101.56
2023-04-15T00:51:38.210Z,103.27
2023-04-15T00:52:46.409Z,102.05
2023-04-15T00:53:54.586Z,103.27
2023-04-15T00:55:02.815Z,101.31
2023-04-15T00:56:10.978Z,103.27
2023-04-15T00:57:20.137Z,102.53
2023-04-15T00:58:29.314Z,102.53
2023-04-15T00:59:37.505Z,102.78
2023-04-15T01:00:45.696Z,102.05
2023-04-15T01:01:54.863Z,102.53
2023-04-15T01:03:04.042Z,104.49
2023-04-15T01:04:13.219Z,103.27
2023-04-15T01:05:22.385Z,101.8
2023-04-15T01:06:31.552Z,103.02
2023-04-15T01:07:40.778Z,103.27
2023-04-15T01:08:49.921Z,101.56
2023-04-15T01:09:59.088Z,101.8
2023-04-15T01:11:08.281Z,102.05
2023-04-15T01:12:17.458Z,103.51
2023-04-15T01:13:26.591Z,102.78
2023-04-15T01:14:35.771Z,103.51
2023-04-15T01:15:43.955Z,103.27
2023-04-15T01:16:53.124Z,104
2023-04-15T01:18:02.295Z,103.27
2023-04-15T01:19:11.476Z,104.49
2023-04-15T01:20:20.659Z,102.78
2023-04-15T01:21:29.873Z,103.27
2023-04-15T01:22:39.064Z,102.05
2023-04-15T01:23:48.239Z,101.07
2023-04-15T01:24:57.334Z,101.07
2023-04-15T01:26:06.529Z,101.56
2023-04-15T01:27:15.688Z,100.09
2023-04-15T01:28:24.846Z,102.05
2023-04-15T01:29:34.028Z,102.05
2023-04-15T01:30:42.225Z,102.05
2023-04-15T01:31:51.423Z,109.13
2023-04-15T01:33:00.561Z,103.27
2023-04-15T01:34:09.734Z,104.24
2023-04-15T01:35:18.902Z,101.8
2023-04-15T01:36:28.087Z,104
2023-04-15T01:37:37.258Z,102.05
2023-04-15T01:38:46.422Z,102.53
2023-04-15T01:39:55.662Z,102.05
2023-04-15T01:41:04.807Z,102.53
2023-04-15T01:42:13.944Z,104.24
2023-04-15T01:43:23.138Z,100.34
2023-04-15T01:44:32.305Z,101.8
2023-04-15T01:45:40.498Z,101.8
2023-04-15T01:46:49.658Z,99.85
2023-04-15T01:47:58.830Z,101.8
2023-04-15T01:49:07.997Z,100.83
2023-04-15T01:50:17.220Z,101.07
2023-04-15T01:51:26.347Z,100.34
2023-04-15T01:52:35.532Z,102.29
2023-04-15T01:53:44.697Z,102.29
2023-04-15T01:54:53.882Z,101.31
2023-04-15T01:56:03.042Z,102.53
2023-04-15T01:57:12.224Z,101.8
2023-04-15T01:58:21.440Z,104
2023-04-15T01:59:30.598Z,103.27
2023-04-15T02:00:38.745Z,104.73
2023-04-15T02:01:47.929Z,105.22
2023-04-15T02:02:57.102Z,102.05
2023-04-15T02:04:06.264Z,103.75
2023-04-15T02:05:15.434Z,100.34
2023-04-15T02:06:24.626Z,101.07
2023-04-15T02:07:33.782Z,102.29
2023-04-15T02:08:42.962Z,102.05
2023-04-15T02:09:52.150Z,101.31
2023-04-15T02:11:01.321Z,99.85
2023-04-15T02:12:10.492Z,102.53
2023-04-15T02:13:19.674Z,101.07
2023-04-15T02:14:28.940Z,104.24
2023-04-15T02:15:37.005Z,102.29
2023-04-15T02:16:45.203Z,101.31
2023-04-15T02:19:02.565Z,103.27
2023-04-15T02:20:11.736Z,102.29
2023-04-15T02:21:19.962Z,102.78
2023-04-15T02:22:28.124Z,102.53
2023-04-15T02:23:37.304Z,101.31
2023-04-15T02:24:46.468Z,104.49
2023-04-15T02:25:55.648Z,102.53
2023-04-15T02:27:04.809Z,102.53
2023-04-15T02:28:13.988Z,102.53
2023-04-15T02:29:23.157Z,103.75
2023-04-15T02:30:32.340Z,101.31
2023-04-15T02:31:41.502Z,104.98
2023-04-15T02:32:50.675Z,102.78
2023-04-15T02:33:59.850Z,103.75
2023-04-15T02:35:09.024Z,102.78
2023-04-15T02:36:18.200Z,102.05
2023-04-15T02:37:26.387Z,104.49
2023-04-15T02:38:35.573Z,104.98
2023-04-15T02:39:44.728Z,102.05
2023-04-15T02:40:53.900Z,103.75
2023-04-15T02:42:03.080Z,103.75
2023-04-15T02:43:12.289Z,106.68
2023-04-15T02:45:30.597Z,103.27
2023-04-15T02:46:38.818Z,107.66
2023-04-15T02:47:46.979Z,105.95
2023-04-15T02:48:55.185Z,104
2023-04-15T02:50:03.371Z,105.46
2023-04-15T02:51:12.547Z,102.53
2023-04-15T02:52:21.712Z,101.07
2023-04-15T02:54:40.054Z,104.73
2023-04-15T02:55:49.233Z,101.8
2023-04-15T02:56:58.399Z,102.29
2023-04-15T02:58:07.572Z,102.53
2023-04-15T02:59:16.817Z,104
2023-04-15T03:00:25.967Z,103.02
2023-04-15T03:01:35.138Z,103.27
2023-04-15T03:02:44.312Z,101.56
2023-04-15T03:03:52.572Z,101.8
2023-04-15T03:05:01.676Z,102.29
2023-04-15T03:06:10.899Z,102.29
2023-04-15T03:07:20.026Z,101.07
2023-04-15T03:08:29.210Z,103.27
2023-04-15T03:09:38.385Z,101.31
2023-04-15T03:10:47.558Z,102.05
2023-04-15T03:11:56.716Z,102.05
2023-04-15T03:13:05.887Z,106.2
2023-04-15T03:14:15.064Z,101.8
2023-04-15T03:15:24.294Z,101.56
2023-04-15T03:16:33.415Z,101.56
2023-04-15T03:17:42.580Z,101.56
2023-04-15T03:18:50.789Z,100.34
2023-04-15T03:19:59.157Z,101.56
2023-04-15T03:21:08.136Z,101.07
2023-04-15T03:22:17.304Z,101.07
2023-04-15T03:23:25.506Z,99.85
2023-04-15T03:24:33.704Z,99.85
2023-04-15T03:25:42.921Z,100.58
2023-04-15T03:26:52.077Z,100.34
2023-04-15T03:28:01.253Z,101.56
2023-04-15T03:29:10.401Z,102.53
2023-04-15T03:30:19.590Z,104
2023-04-15T03:31:28.737Z,102.05
2023-04-15T03:32:37.897Z,102.05
2023-04-15T03:33:47.065Z,101.07
2023-04-15T03:34:56.247Z,103.02
2023-04-15T03:36:05.420Z,102.53
2023-04-15T03:37:14.585Z,103.27
2023-04-15T03:38:23.773Z,101.8
2023-04-15T03:39:31.960Z,102.05
2023-04-15T03:40:41.139Z,100.58
2023-04-15T03:41:50.355Z,101.31
2023-04-15T03:42:59.472Z,102.29
2023-04-15T03:44:08.672Z,105.22
2023-04-15T03:45:17.822Z,103.02
2023-04-15T03:46:27.046Z,99.85
2023-04-15T03:47:36.169Z,109.13
2023-04-15T03:48:45.341Z,102.05
2023-04-15T03:49:54.506Z,101.07
2023-04-15T03:51:03.686Z,101.8
2023-04-15T03:52:12.856Z,101.07
2023-04-15T03:54:31.196Z,101.31
2023-04-15T03:55:40.381Z,101.56
2023-04-15T03:56:48.563Z,104.98
2023-04-15T03:57:57.745Z,100.09
2023-04-15T03:59:06.909Z,99.85
2023-04-15T04:00:15.114Z,98.38
2023-04-15T04:01:23.309Z,96.92
2023-04-15T04:02:32.467Z,101.8
2023-04-15T04:03:41.642Z,97.41
2023-04-15T04:04:50.820Z,95.94
2023-04-15T04:06:00.027Z,93.01
2023-04-15T04:07:09.160Z,92.52
2023-04-15T04:08:18.332Z,94.97
2023-04-15T04:09:27.507Z,92.28
2023-04-15T04:10:36.691Z,90.82
2023-04-15T04:11:45.861Z,92.28
2023-04-15T04:12:55.012Z,91.3
2023-04-15T04:14:04.236Z,90.57
2023-04-15T04:15:13.420Z,88.37
2023-04-15T04:16:21.556Z,88.37
2023-04-15T04:17:30.733Z,90.08
2023-04-15T04:18:39.897Z,91.3
2023-04-15T04:20:58.252Z,87.64
2023-04-15T04:22:07.412Z,89.11
2023-04-15T04:23:16.600Z,90.57
2023-04-15T04:24:25.770Z,89.35
2023-04-15T04:25:33.964Z,92.28
2023-04-15T04:26:42.152Z,89.35
2023-04-15T04:27:51.327Z,90.82
2023-04-15T04:29:00.500Z,89.84
2023-04-15T04:30:09.665Z,87.64
2023-04-15T04:31:18.013Z,89.35
2023-04-15T04:32:26.045Z,90.08
2023-04-15T04:33:35.221Z,88.62
2023-04-15T04:34:44.405Z,89.11
2023-04-15T04:35:53.567Z,90.33
2023-04-15T04:37:02.740Z,90.82
2023-04-15T04:38:11.916Z,89.35
2023-04-15T04:39:21.112Z,94.48
2023-04-15T04:40:30.255Z,90.82
2023-04-15T04:41:39.425Z,98.87
2023-04-15T04:42:48.605Z,92.77
2023-04-15T04:43:57.770Z,104.24
2023-04-15T04:45:06.945Z,93.99
2023-04-15T04:46:16.128Z,98.38
2023-04-15T04:47:24.302Z,100.34
2023-04-15T04:48:33.488Z,97.16
2023-04-15T04:49:42.661Z,97.9
2023-04-15T04:50:51.833Z,99.6
2023-04-15T04:52:01.122Z,98.63
2023-04-15T04:53:10.168Z,97.41
2023-04-15T04:54:19.355Z,95.7
2023-04-15T04:55:27.554Z,98.87
2023-04-15T04:56:35.730Z,98.14
2023-04-15T04:57:43.927Z,100.34
2023-04-15T04:58:52.173Z,98.87
2023-04-15T05:00:01.339Z,97.16
2023-04-15T05:01:10.453Z,101.8
2023-04-15T05:02:19.647Z,99.6
2023-04-15T05:03:28.794Z,100.34
2023-04-15T05:04:37.979Z,99.36
2023-04-15T05:05:47.152Z,98.63
2023-04-15T05:06:56.328Z,98.87
2023-04-15T05:09:14.680Z,97.9
2023-04-15T05:10:23.864Z,96.43
2023-04-15T05:11:33.032Z,99.85
2023-04-15T05:12:42.195Z,96.43
2023-04-15T05:14:59.623Z,97.16
2023-04-15T05:16:07.763Z,95.94
2023-04-15T05:17:15.929Z,95.7
2023-04-15T05:18:25.119Z,98.63
2023-04-15T05:19:34.310Z,98.63
2023-04-15T05:20:43.480Z,95.7
2023-04-15T05:21:52.657Z,96.92
2023-04-15T05:23:01.802Z,97.16
2023-04-15T05:24:11.016Z,97.9
2023-04-15T05:25:20.176Z,98.14
2023-04-15T05:26:29.337Z,96.92
2023-04-15T05:27:38.511Z,99.36
2023-04-15T05:28:46.697Z,103.02
2023-04-15T05:29:54.873Z,105.46
2023-04-15T05:31:04.052Z,104
2023-04-15T05:32:13.225Z,104
2023-04-15T05:33:22.410Z,104.49
2023-04-15T05:34:31.611Z,104.73
2023-04-15T05:35:40.735Z,103.02
2023-04-15T05:36:49.915Z,103.27
2023-04-15T05:37:59.099Z,101.07
2023-04-15T05:39:08.263Z,99.6
2023-04-15T05:40:17.450Z,99.85
2023-04-15T05:41:26.607Z,100.34
2023-04-15T05:42:35.782Z,101.8
2023-04-15T05:43:44.958Z,99.36
2023-04-15T05:44:53.143Z,102.53
2023-04-15T05:46:02.312Z,102.29
2023-04-15T05:47:11.482Z,100.09
2023-04-15T05:48:20.663Z,100.34
2023-04-15T05:49:29.838Z,103.75
2023-04-15T05:50:39.010Z,101.07
2023-04-15T05:51:48.173Z,101.07
2023-04-15T05:52:56.378Z,101.07
2023-04-15T05:54:04.560Z,100.58
2023-04-15T05:55:13.734Z,102.78
2023-04-15T05:56:21.929Z,102.53
2023-04-15T05:57:30.116Z,103.27
2023-04-15T05:58:39.294Z,102.29
2023-04-15T05:59:48.467Z,101.31
2023-04-15T06:00:57.817Z,103.27
2023-04-15T06:02:06.877Z,102.05
2023-04-15T06:03:16.064Z,100.09
2023-04-15T06:04:25.148Z,100.83
2023-04-15T06:06:43.560Z,102.05
2023-04-15T06:07:52.676Z,101.07
2023-04-15T06:09:01.866Z,100.83
2023-04-15T06:10:11.015Z,101.07
2023-04-15T06:11:20.194Z,101.31
2023-04-15T06:12:28.374Z,99.36
2023-04-15T06:13:37.576Z,101.07
2023-04-15T06:14:46.723Z,101.56
2023-04-15T06:15:55.923Z,100.58
2023-04-15T06:17:05.129Z,100.83
2023-04-15T06:18:14.354Z,99.36
2023-04-15T06:19:23.431Z,97.65
2023-04-15T06:20:32.594Z,95.45
2023-04-15T06:21:41.907Z,96.19
2023-04-15T06:22:50.947Z,98.38
2023-04-15T06:24:00.123Z,99.36
2023-04-15T06:25:09.283Z,96.92
2023-04-15T06:26:18.547Z,99.36
2023-04-15T06:27:26.645Z,99.6
2023-04-15T06:28:35.825Z,100.34
2023-04-15T06:29:44.005Z,98.14
2023-04-15T06:32:01.375Z,101.56
2023-04-15T06:33:09.574Z,101.07
2023-04-15T06:34:17.853Z,102.05
2023-04-15T06:35:26.925Z,101.56
2023-04-15T06:36:36.104Z,101.07
2023-04-15T06:37:45.318Z,100.34
2023-04-15T06:38:54.435Z,99.36
2023-04-15T06:40:03.622Z,101.31
2023-04-15T06:41:12.868Z,101.07
2023-04-15T06:42:21.966Z,104.73
2023-04-15T06:43:31.138Z,100.83
2023-04-15T06:44:40.300Z,101.31
2023-04-15T06:45:49.504Z,103.27
2023-04-15T06:46:58.657Z,101.07
2023-04-15T06:48:07.902Z,101.8
2023-04-15T06:49:16.103Z,100.58
2023-04-15T06:50:25.274Z,101.56
2023-04-15T06:51:34.424Z,102.53
2023-04-15T06:52:43.611Z,101.8
2023-04-15T06:53:52.771Z,101.31
2023-04-15T06:55:00.974Z,102.78
2023-04-15T06:56:10.153Z,101.8
2023-04-15T06:57:18.335Z,101.8
2023-04-15T06:58:26.545Z,103.27
2023-04-15T06:59:35.694Z,101.31
2023-04-15T07:01:54.059Z,102.05
2023-04-15T07:03:02.312Z,102.05
2023-04-15T07:04:10.465Z,102.53
2023-04-15T07:06:28.789Z,102.05
2023-04-15T07:07:38.057Z,103.02
2023-04-15T07:08:47.225Z,104.98
2023-04-15T07:09:56.480Z,103.51
2023-04-15T07:11:05.602Z,104.49
2023-04-15T07:12:14.635Z,104
2023-04-15T07:13:23.896Z,104.73
2023-04-15T07:14:33.138Z,105.46
2023-04-15T07:15:42.320Z,103.75
2023-04-15T07:16:51.568Z,103.02
2023-04-15T07:18:00.489Z,104
2023-04-15T07:19:08.894Z,104.98
2023-04-15T07:20:18.084Z,103.75
2023-04-15T07:21:27.028Z,104
2023-04-15T07:22:36.206Z,103.27
2023-04-15T07:23:45.609Z,102.05
2023-04-15T07:24:54.675Z,102.53
2023-04-15T07:26:03.914Z,101.07
2023-04-15T07:27:12.997Z,101.07
2023-04-15T07:28:22.185Z,102.29
2023-04-15T07:29:31.237Z,102.05
2023-04-15T07:30:40.530Z,100.09
2023-04-15T07:31:49.582Z,101.8
2023-04-15T07:32:58.820Z,101.31
2023-04-15T07:34:06.966Z,100.83
2023-04-15T07:35:15.147Z,101.8
2023-04-15T07:36:24.303Z,102.05
2023-04-15T07:37:32.600Z,101.07
2023-04-15T07:38:40.802Z,101.07
2023-04-15T07:39:50.063Z,100.83
2023-04-15T07:40:59.045Z,100.09
2023-04-15T07:42:08.215Z,102.53
2023-04-15T07:43:17.509Z,101.31
2023-04-15T07:44:26.688Z,102.05
2023-04-15T07:45:35.890Z,103.02
2023-04-15T07:46:44.976Z,104.49
2023-04-15T07:47:54.120Z,104
2023-04-15T07:49:03.426Z,104
2023-04-15T07:50:12.530Z,104
2023-04-15T07:51:21.651Z,104
2023-04-15T07:52:30.767Z,106.2
2023-04-15T07:53:38.952Z,105.22
2023-04-15T07:54:48.130Z,106.44
2023-04-15T07:55:57.296Z,104.49
2023-04-15T07:57:06.477Z,106.44
2023-04-15T07:58:15.636Z,107.66
2023-04-15T07:59:24.862Z,106.68
2023-04-15T08:00:34.074Z,104.73
2023-04-15T08:01:42.329Z,107.91
2023-04-15T08:02:50.387Z,107.42
2023-04-15T08:03:58.610Z,108.15
2023-04-15T08:05:08.007Z,109.37
2023-04-15T08:06:16.001Z,109.86
2023-04-15T08:07:25.173Z,110.35
2023-04-15T08:08:34.278Z,110.1
2023-04-15T08:09:43.560Z,111.32
2023-04-15T08:10:52.615Z,109.86
2023-04-15T08:12:01.792Z,113.03
2023-04-15T08:13:10.960Z,108.64
2023-04-15T08:14:20.136Z,112.54
2023-04-15T08:15:29.380Z,109.61
2023-04-15T08:16:38.499Z,109.86
2023-04-15T08:17:47.645Z,108.39
2023-04-15T08:18:56.895Z,109.61
2023-04-15T08:20:06.139Z,107.91
2023-04-15T08:21:14.364Z,109.13
2023-04-15T08:22:23.451Z,107.91
2023-04-15T08:23:32.525Z,106.68
2023-04-15T08:24:41.804Z,106.44
2023-04-15T08:25:50.878Z,107.91
2023-04-15T08:27:00.046Z,109.37
2023-04-15T08:28:08.266Z,107.91
2023-04-15T08:29:16.577Z,108.64
2023-04-15T08:30:25.664Z,110.1
2023-04-15T08:31:33.792Z,107.66
2023-04-15T08:32:42.155Z,107.17
2023-04-15T08:33:51.276Z,107.17
2023-04-15T08:35:00.417Z,107.91
2023-04-15T08:36:09.517Z,106.2
2023-04-15T08:37:18.712Z,108.88
2023-04-15T08:38:27.878Z,105.22
2023-04-15T08:39:37.106Z,104.73
2023-04-15T08:40:46.243Z,105.71
2023-04-15T08:41:55.531Z,107.42
2023-04-15T08:43:04.618Z,104
2023-04-15T08:44:13.937Z,105.46
2023-04-15T08:45:22.900Z,105.71
2023-04-15T08:46:32.136Z,105.22
2023-04-15T08:47:41.391Z,107.17
2023-04-15T08:48:49.526Z,104.24
2023-04-15T08:49:58.679Z,105.95
2023-04-15T08:51:07.842Z,109.13
2023-04-15T08:52:17.030Z,107.66
2023-04-15T08:53:26.243Z,106.68
2023-04-15T08:54:35.417Z,107.66
2023-04-15T08:55:44.460Z,107.17
2023-04-15T08:56:53.664Z,109.13
2023-04-15T08:58:01.980Z,105.46
2023-04-15T08:59:10.172Z,108.88
2023-04-15T09:00:18.280Z,108.64
2023-04-15T09:01:27.413Z,106.44
2023-04-15T09:02:35.648Z,107.91
2023-04-15T09:03:44.773Z,108.64
2023-04-15T09:04:54.027Z,108.15
2023-04-15T09:06:03.142Z,107.91
2023-04-15T09:07:12.244Z,106.44
2023-04-15T09:08:21.567Z,105.95
2023-04-15T09:09:30.692Z,109.61
2023-04-15T09:10:39.814Z,111.32
2023-04-15T09:11:49.028Z,107.42
2023-04-15T09:12:58.108Z,108.39
2023-04-15T09:14:07.420Z,109.13
2023-04-15T09:15:16.571Z,109.13
2023-04-15T09:16:25.646Z,109.37
2023-04-15T09:17:33.875Z,106.93
2023-04-15T09:18:43.045Z,110.59
2023-04-15T09:19:52.218Z,108.88
2023-04-15T09:21:01.446Z,108.88
2023-04-15T09:22:10.576Z,107.42
2023-04-15T09:23:19.742Z,107.42
2023-04-15T09:24:28.915Z,106.68
2023-04-15T09:25:38.147Z,106.44
2023-04-15T09:26:47.237Z,106.44
2023-04-15T09:27:56.469Z,108.88
2023-04-15T09:29:05.636Z,108.39
2023-04-15T09:30:14.721Z,108.15
2023-04-15T09:31:23.891Z,110.1
2023-04-15T09:32:32.108Z,107.17
2023-04-15T09:33:41.249Z,108.39
2023-04-15T09:34:50.458Z,107.66
2023-04-15T09:35:59.628Z,107.91
2023-04-15T09:37:08.795Z,106.93
2023-04-15T09:38:17.954Z,109.13
2023-04-15T09:39:27.206Z,107.17
2023-04-15T09:40:36.502Z,106.2
2023-04-15T09:41:45.571Z,107.42
2023-04-15T09:42:54.792Z,105.71
2023-04-15T09:44:04.029Z,108.39
2023-04-15T09:45:13.008Z,105.95
2023-04-15T09:46:22.248Z,106.93
2023-04-15T09:48:39.579Z,104.49
2023-04-15T09:49:48.722Z,103.51
2023-04-15T09:50:57.928Z,103.02
2023-04-15T09:52:07.027Z,103.02
2023-04-15T09:53:16.189Z,104.73
2023-04-15T09:54:25.548Z,104
2023-04-15T09:55:34.713Z,105.95
2023-04-15T09:56:43.850Z,105.95
2023-04-15T09:57:52.893Z,105.22
2023-04-15T09:59:02.112Z,107.42
2023-04-15T10:00:11.330Z,107.66
2023-04-15T10:01:20.481Z,104.49
2023-04-15T10:02:28.668Z,104.24
2023-04-15T10:03:36.884Z,107.17
2023-04-15T10:04:44.968Z,105.95
2023-04-15T10:05:54.156Z,107.17
2023-04-15T10:07:03.406Z,105.22
2023-04-15T10:08:12.490Z,107.42
2023-04-15T10:09:21.692Z,106.68
2023-04-15T10:10:29.935Z,107.17
2023-04-15T10:11:38.157Z,107.91
2023-04-15T10:12:47.360Z,109.13
2023-04-15T10:13:56.530Z,109.13
2023-04-15T10:15:05.646Z,106.93
2023-04-15T10:16:14.822Z,107.17
2023-04-15T10:17:23.961Z,108.39
2023-04-15T10:18:33.091Z,107.91
2023-04-15T10:19:42.268Z,106.68
2023-04-15T10:20:51.457Z,106.44
2023-04-15T10:22:00.633Z,106.93
2023-04-15T10:23:09.834Z,106.68
2023-04-15T10:24:19.101Z,108.88
2023-04-15T10:25:28.285Z,108.15
2023-04-15T10:26:36.415Z,109.86
2023-04-15T10:27:45.540Z,108.88
2023-04-15T10:28:54.662Z,109.86
2023-04-15T10:30:03.877Z,108.15
2023-04-15T10:31:13.019Z,109.13
2023-04-15T10:32:22.283Z,106.68
2023-04-15T10:33:31.357Z,105.95
2023-04-15T10:34:39.681Z,105.71
2023-04-15T10:35:47.746Z,109.37
2023-04-15T10:36:56.907Z,106.68
2023-04-15T10:38:06.067Z,107.91
2023-04-15T10:39:14.284Z,111.32
2023-04-15T10:40:22.452Z,107.17
2023-04-15T10:41:31.657Z,108.88
2023-04-15T10:42:40.871Z,108.64
2023-04-15T10:43:50.061Z,108.64
2023-04-15T10:44:59.142Z,108.15
2023-04-15T10:46:07.359Z,110.35
2023-04-15T10:47:16.567Z,107.91
2023-04-15T10:48:25.686Z,109.61
2023-04-15T10:49:34.857Z,108.64
2023-04-15T10:50:44.023Z,107.42
2023-04-15T10:51:53.238Z,107.91
2023-04-15T10:53:02.377Z,106.2
2023-04-15T10:54:11.619Z,106.68
2023-04-15T10:55:20.718Z,109.13
2023-04-15T10:56:30.027Z,108.88
2023-04-15T10:57:39.161Z,106.68
2023-04-15T10:58:48.288Z,109.37
2023-04-15T11:01:06.702Z,106.68
2023-04-15T11:02:14.821Z,106.68
2023-04-15T11:03:23.934Z,105.71
2023-04-15T11:04:33.303Z,107.91
2023-04-15T11:05:42.296Z,108.15
2023-04-15T11:06:51.493Z,107.91
2023-04-15T11:08:00.802Z,109.13
2023-04-15T11:10:19.064Z,108.88
2023-04-15T11:11:28.247Z,107.42
2023-04-15T11:12:37.341Z,109.61
2023-04-15T11:13:46.601Z,108.64
2023-04-15T11:14:55.666Z,108.88
2023-04-15T11:16:04.937Z,109.61
2023-04-15T11:17:13.080Z,110.35
2023-04-15T11:18:21.226Z,113.03
2023-04-15T11:19:30.493Z,113.52
2023-04-15T11:20:39.583Z,113.76
2023-04-15T11:21:48.733Z,112.54
2023-04-15T11:22:57.929Z,115.96
2023-04-15T11:24:07.136Z,118.16
2023-04-15T11:25:16.255Z,116.21
2023-04-15T11:26:25.507Z,116.45
2023-04-15T11:27:34.805Z,119.62
2023-04-15T11:28:43.994Z,118.16
2023-04-15T11:29:52.947Z,119.14
2023-04-15T11:31:02.246Z,120.11
2023-04-15T11:32:11.424Z,118.65
2023-04-15T11:33:20.589Z,116.45
2023-04-15T11:34:28.650Z,119.62
2023-04-15T11:35:37.831Z,119.38
2023-04-15T11:36:46.993Z,114.5
2023-04-15T11:37:56.181Z,118.89
2023-04-15T11:39:05.330Z,115.47
2023-04-15T11:40:14.523Z,117.43
2023-04-15T11:41:22.709Z,116.45
2023-04-15T11:42:30.901Z,118.16
2023-04-15T11:43:39.091Z,112.79
2023-04-15T11:44:47.286Z,113.03
2023-04-15T11:45:55.470Z,110.59
2023-04-15T11:47:03.673Z,109.86
2023-04-15T11:48:12.837Z,111.32
2023-04-15T11:49:22.014Z,109.86
2023-04-15T11:51:40.352Z,108.15
2023-04-15T11:52:49.564Z,109.61
2023-04-15T11:53:58.693Z,108.88
2023-04-15T11:56:17.047Z,108.88
2023-04-15T11:57:26.222Z,109.37
2023-04-15T11:58:35.378Z,109.86
2023-04-15T11:59:44.554Z,109.86
2023-04-15T12:00:52.759Z,109.37
2023-04-15T12:03:10.115Z,109.61
2023-04-15T12:04:19.290Z,109.13
2023-04-15T12:05:28.467Z,109.37
2023-04-15T12:06:37.638Z,111.32
2023-04-15T12:07:46.811Z,109.86
2023-04-15T12:08:55.970Z,108.88
2023-04-15T12:10:05.152Z,112.06
2023-04-15T12:11:14.319Z,108.64
2023-04-15T12:12:23.516Z,109.61
2023-04-15T12:13:32.660Z,110.1
2023-04-15T12:14:40.862Z,108.64
2023-04-15T12:15:49.057Z,111.32
2023-04-15T12:16:58.224Z,109.86
2023-04-15T12:18:07.398Z,111.57
2023-04-15T12:19:16.569Z,108.88
2023-04-15T12:20:25.736Z,112.06
2023-04-15T12:21:34.923Z,110.35
2023-04-15T12:22:44.091Z,111.81
2023-04-15T12:23:53.260Z,109.61
2023-04-15T12:25:02.421Z,109.13
2023-04-15T12:26:11.596Z,107.91
2023-04-15T12:27:20.767Z,108.64
2023-04-15T12:28:29.946Z,106.93
2023-04-15T12:29:39.117Z,104.98
2023-04-15T12:30:47.320Z,105.22
2023-04-15T12:31:56.490Z,103.51
2023-04-15T12:33:05.655Z,105.22
2023-04-15T12:34:14.821Z,105.22
2023-04-15T12:35:24.046Z,104
2023-04-15T12:36:33.216Z,104.98
2023-04-15T12:38:51.529Z,103.75
2023-04-15T12:39:59.716Z,105.46
2023-04-15T12:41:07.901Z,104.49
2023-04-15T12:43:26.252Z,104
2023-04-15T12:44:34.441Z,105.71
2023-04-15T12:45:42.642Z,105.46
2023-04-15T12:46:51.859Z,101.07
2023-04-15T12:48:00.979Z,104.73
2023-04-15T12:49:10.152Z,106.2
2023-04-15T12:50:19.327Z,102.78
2023-04-15T12:51:28.502Z,100.58
2023-04-15T12:52:37.723Z,99.85
2023-04-15T12:53:46.857Z,98.38
2023-04-15T12:54:56.035Z,100.58
2023-04-15T12:56:05.190Z,101.31
2023-04-15T12:57:14.375Z,101.56
2023-04-15T12:58:23.531Z,103.75
2023-04-15T13:00:41.894Z,106.68
2023-04-15T13:01:50.065Z,103.27
2023-04-15T13:02:59.230Z,104.49
2023-04-15T13:04:08.435Z,105.71
2023-04-15T13:05:17.584Z,103.51
2023-04-15T13:06:26.759Z,104.73
2023-04-15T13:08:45.103Z,107.17
2023-04-15T13:09:54.280Z,106.68
2023-04-15T13:11:02.460Z,106.44
2023-04-15T13:12:10.658Z,105.46
2023-04-15T13:13:19.829Z,104.98
2023-04-15T13:14:29.002Z,107.42
2023-04-15T13:15:37.208Z,105.95
2023-04-15T13:16:46.365Z,106.44
2023-04-15T13:17:54.565Z,103.27
2023-04-15T13:19:03.723Z,103.51
2023-04-15T13:21:22.076Z,101.31
2023-04-15T13:22:31.236Z,103.51
2023-04-15T13:23:40.428Z,104.73
2023-04-15T13:24:49.588Z,104.73
2023-04-15T13:25:58.773Z,105.22
2023-04-15T13:27:07.941Z,105.46
2023-04-15T13:28:17.106Z,104.49
2023-04-15T13:29:26.277Z,107.42
2023-04-15T13:30:35.454Z,107.17
2023-04-15T13:31:44.630Z,106.68
2023-04-15T13:32:52.818Z,105.46
2023-04-15T13:34:01.991Z,106.44
2023-04-15T13:35:11.165Z,107.91
2023-04-15T13:36:20.337Z,107.42
2023-04-15T13:37:29.497Z,108.88
2023-04-15T13:38:38.673Z,105.46
2023-04-15T13:39:47.847Z,110.83
2023-04-15T13:40:56.055Z,111.81
2023-04-15T13:42:04.226Z,111.32
2023-04-15T13:43:13.406Z,109.86
2023-04-15T13:44:22.579Z,109.61
2023-04-15T13:45:31.767Z,110.59
2023-04-15T13:46:40.920Z,110.59
2023-04-15T13:47:50.100Z,106.2
2023-04-15T13:48:59.270Z,108.15
2023-04-15T13:50:08.442Z,105.95
2023-04-15T13:51:17.619Z,106.44
2023-04-15T13:52:26.777Z,107.91
2023-04-15T13:53:35.973Z,106.68
2023-04-15T13:54:45.134Z,105.71
2023-04-15T13:55:54.299Z,105.22
2023-04-15T13:57:02.488Z,107.17
2023-04-15T13:58:10.687Z,105.71
2023-04-15T13:59:18.870Z,105.95
2023-04-15T14:00:28.064Z,105.95
2023-04-15T14:01:37.219Z,106.2
2023-04-15T14:02:46.388Z,107.66
2023-04-15T14:03:55.577Z,107.17
2023-04-15T14:05:04.740Z,109.86
2023-04-15T14:06:13.922Z,108.64
2023-04-15T14:07:23.080Z,109.61
2023-04-15T14:08:32.247Z,107.17
2023-04-15T14:09:41.432Z,106.93
2023-04-15T14:10:50.586Z,107.91
2023-04-15T14:11:59.772Z,105.71
2023-04-15T14:13:08.935Z,104.24
2023-04-15T14:14:17.126Z,104.49
2023-04-15T14:15:26.294Z,105.71
2023-04-15T14:16:35.484Z,106.2
2023-04-15T14:17:44.643Z,105.95
2023-04-15T14:18:53.829Z,107.17
2023-04-15T14:21:12.162Z,106.93
2023-04-15T14:22:21.342Z,104.49
2023-04-15T14:23:29.526Z,108.88
2023-04-15T14:24:37.715Z,108.88
2023-04-15T14:25:46.889Z,108.15
2023-04-15T14:26:55.092Z,107.17
2023-04-15T14:28:03.286Z,107.42
2023-04-15T14:29:12.449Z,107.91
2023-04-15T14:30:21.607Z,107.17
2023-04-15T14:31:30.783Z,108.39
2023-04-15T14:32:39.964Z,106.93
2023-04-15T14:33:49.152Z,107.91
2023-04-15T14:34:58.319Z,106.44
2023-04-15T14:36:07.484Z,105.95
2023-04-15T14:37:15.680Z,106.2
2023-04-15T14:38:24.844Z,105.46
2023-04-15T14:39:34.090Z,106.2
2023-04-15T14:40:43.358Z,105.71
2023-04-15T14:41:52.499Z,106.93
2023-04-15T14:43:01.526Z,105.22
2023-04-15T14:44:10.837Z,106.2
2023-04-15T14:45:20.079Z,107.42
2023-04-15T14:46:29.197Z,107.91
2023-04-15T14:47:38.225Z,107.42
2023-04-15T14:48:47.406Z,109.37
2023-04-15T14:49:56.569Z,107.17
2023-04-15T14:51:04.762Z,107.91
2023-04-15T14:52:12.966Z,106.93
2023-04-15T14:53:22.137Z,108.88
2023-04-15T14:54:31.300Z,108.15
2023-04-15T14:55:40.478Z,106.68
2023-04-15T14:56:49.659Z,105.71